Time;durP1;ratioP1;P1;durP2;ratioP2;P2;SDS_P1;SDS_P2;PMS_P1;PMS_P2;Temp;Humidity;BMP_temperature;BMP_pressure;BME280_temperature;BME280_humidity;BME280_pressure;Samples;Min_cycle;Max_cycle;Signal;HPM_P1;HPM_P2
2021/10/14 00:00:36;;;;;;;5.60;2.70;;;10.90;99.90;;;;;;4985888;28;20045;-87
2021/10/14 00:03:03;;;;;;;5.82;2.35;;;10.90;99.90;;;;;;5002690;28;20035;-87
2021/10/14 00:05:32;;;;;;;8.40;2.45;;;10.90;99.90;;;;;;5002736;28;20073;-87
2021/10/14 00:07:57;;;;;;;6.65;2.53;;;10.90;99.90;;;;;;4983353;28;20046;-86
2021/10/14 00:10:23;;;;;;;4.30;2.47;;;11.00;99.90;;;;;;4968557;28;20248;-86
2021/10/14 00:12:49;;;;;;;8.13;2.45;;;10.90;99.90;;;;;;4968573;28;20026;-86
2021/10/14 00:15:14;;;;;;;9.38;2.78;;;10.90;99.90;;;;;;4953028;28;20023;-87
2021/10/14 00:17:40;;;;;;;5.20;2.20;;;10.80;99.90;;;;;;4968454;28;20092;-86
2021/10/14 00:20:06;;;;;;;4.75;2.28;;;10.90;99.90;;;;;;4969312;28;20166;-86
2021/10/14 00:22:31;;;;;;;5.95;2.85;;;10.90;99.90;;;;;;4980017;28;20117;-86
2021/10/14 00:24:57;;;;;;;2.50;1.48;;;10.80;99.90;;;;;;4967536;28;20059;-87
2021/10/14 00:27:22;;;;;;;3.40;1.98;;;10.90;99.90;;;;;;4985431;28;20023;-86
2021/10/14 00:29:48;;;;;;;6.82;2.67;;;10.80;99.90;;;;;;4971267;28;20034;-86
2021/10/14 00:32:13;;;;;;;8.27;2.55;;;10.80;99.90;;;;;;4983971;28;20092;-86
2021/10/14 00:34:39;;;;;;;5.18;2.50;;;10.80;99.90;;;;;;4980071;28;20034;-86
2021/10/14 00:37:04;;;;;;;7.28;1.67;;;10.80;99.90;;;;;;4954173;28;20418;-86
2021/10/14 00:39:30;;;;;;;10.07;2.72;;;10.90;99.90;;;;;;4985995;28;20046;-86
2021/10/14 00:41:55;;;;;;;2.90;2.38;;;10.90;99.90;;;;;;4961188;28;20048;-86
2021/10/14 00:44:21;;;;;;;7.00;2.88;;;10.90;99.90;;;;;;4953915;28;20026;-87
2021/10/14 00:46:51;;;;;;;8.93;2.65;;;10.80;99.90;;;;;;4955262;28;20026;-87
2021/10/14 00:49:17;;;;;;;3.33;1.95;;;10.80;99.90;;;;;;4984331;28;20034;-87
2021/10/14 00:51:42;;;;;;;6.38;3.47;;;10.80;99.90;;;;;;4964317;28;20038;-86
2021/10/14 00:54:08;;;;;;;5.95;2.45;;;10.90;99.90;;;;;;4965067;28;20034;-86
2021/10/14 00:56:33;;;;;;;5.38;2.65;;;10.90;99.90;;;;;;4980864;28;20114;-87
2021/10/14 00:58:59;;;;;;;7.03;3.38;;;10.80;99.90;;;;;;4970269;28;20073;-87
2021/10/14 01:01:24;;;;;;;10.32;3.72;;;10.90;99.90;;;;;;4963033;28;20113;-87
2021/10/14 01:03:50;;;;;;;8.90;3.35;;;10.90;99.90;;;;;;4952631;28;20257;-86
2021/10/14 01:06:15;;;;;;;8.23;3.40;;;10.90;99.90;;;;;;4970490;28;20375;-86
2021/10/14 01:08:41;;;;;;;8.27;3.25;;;10.90;99.90;;;;;;4967501;28;20033;-87
2021/10/14 01:11:09;;;;;;;4.47;2.47;;;10.90;99.90;;;;;;4970360;28;20038;-87
2021/10/14 01:13:35;;;;;;;9.40;3.38;;;10.80;99.90;;;;;;4959866;28;20078;-87
2021/10/14 01:16:04;;;;;;;6.88;3.72;;;10.80;99.90;;;;;;4949330;28;20046;-86
2021/10/14 01:18:29;;;;;;;10.10;4.10;;;10.90;99.90;;;;;;4983093;28;20554;-87
2021/10/14 01:20:55;;;;;;;9.52;3.67;;;10.90;99.90;;;;;;4989553;28;20165;-87
2021/10/14 01:23:20;;;;;;;9.18;3.75;;;10.80;99.90;;;;;;4966450;28;20419;-87
2021/10/14 01:25:46;;;;;;;9.50;3.88;;;10.80;99.90;;;;;;4991588;28;20406;-86
2021/10/14 01:28:12;;;;;;;13.40;4.20;;;10.90;99.90;;;;;;4983259;28;20053;-86
2021/10/14 01:30:38;;;;;;;10.35;4.22;;;10.90;99.90;;;;;;4959719;28;20031;-86
2021/10/14 01:33:03;;;;;;;8.52;3.63;;;10.80;99.90;;;;;;4967871;28;20034;-87
2021/10/14 01:35:29;;;;;;;11.00;4.25;;;10.90;99.90;;;;;;4985639;28;20034;-86
2021/10/14 01:37:54;;;;;;;8.70;3.97;;;10.80;99.90;;;;;;4985351;28;20502;-86
2021/10/14 01:40:20;;;;;;;9.38;5.47;;;10.90;99.90;;;;;;4967089;28;20030;-87
2021/10/14 01:42:45;;;;;;;15.27;5.07;;;10.90;99.90;;;;;;4972667;28;20635;-87
2021/10/14 01:45:11;;;;;;;10.02;5.40;;;10.80;99.90;;;;;;4970297;28;20113;-87
2021/10/14 01:47:36;;;;;;;9.38;3.28;;;10.80;99.90;;;;;;4981807;28;20042;-86
2021/10/14 01:50:03;;;;;;;9.30;4.57;;;10.80;99.90;;;;;;4970597;28;22408;-87
2021/10/14 01:52:28;;;;;;;10.65;5.13;;;10.80;99.90;;;;;;4966717;28;20457;-86
2021/10/14 01:54:54;;;;;;;11.32;5.30;;;10.70;99.90;;;;;;4989016;28;20130;-87
2021/10/14 01:57:19;;;;;;;11.07;5.75;;;10.70;99.90;;;;;;4986220;28;20038;-87
2021/10/14 01:59:45;;;;;;;10.40;4.45;;;10.70;99.90;;;;;;4981285;28;20129;-86
2021/10/14 02:02:10;;;;;;;7.90;4.20;;;10.70;99.90;;;;;;4968173;28;20026;-86
2021/10/14 02:04:36;;;;;;;11.45;5.63;;;10.70;99.90;;;;;;4990844;28;20046;-87
2021/10/14 02:07:02;;;;;;;17.23;7.47;;;10.70;99.90;;;;;;4986305;28;20471;-87
2021/10/14 02:09:27;;;;;;;10.43;6.20;;;10.70;99.90;;;;;;5003666;28;20433;-86
2021/10/14 02:11:53;;;;;;;13.88;5.90;;;10.50;99.90;;;;;;4972903;28;20530;-87
2021/10/14 02:14:18;;;;;;;12.77;5.80;;;10.50;99.90;;;;;;5005191;28;20037;-86
2021/10/14 02:16:44;;;;;;;15.27;7.03;;;10.50;99.90;;;;;;4990732;28;20456;-86
2021/10/14 02:19:09;;;;;;;9.23;5.93;;;10.60;99.90;;;;;;5007490;28;20083;-87
2021/10/14 02:21:35;;;;;;;5.03;3.65;;;10.50;99.90;;;;;;4992999;28;20490;-87
2021/10/14 02:24:00;;;;;;;8.27;5.22;;;10.50;99.90;;;;;;4999878;28;20497;-87
2021/10/14 02:26:26;;;;;;;13.13;6.05;;;10.50;99.90;;;;;;5009923;28;20034;-87
2021/10/14 02:28:51;;;;;;;14.88;5.68;;;10.40;99.90;;;;;;4990253;28;20025;-87
2021/10/14 02:31:17;;;;;;;10.50;4.72;;;10.40;99.90;;;;;;4983453;28;20030;-86
2021/10/14 02:33:43;;;;;;;8.70;3.42;;;10.50;99.90;;;;;;5006070;28;20030;-87
2021/10/14 02:36:08;;;;;;;9.88;6.18;;;10.40;99.90;;;;;;5007878;28;20029;-87
2021/10/14 02:38:34;;;;;;;16.73;6.75;;;10.40;99.90;;;;;;4976315;28;20045;-87
2021/10/14 02:40:59;;;;;;;13.60;5.93;;;10.30;99.90;;;;;;4983989;28;20038;-87
2021/10/14 02:43:25;;;;;;;13.30;6.47;;;10.30;99.90;;;;;;4987026;28;20431;-87
2021/10/14 02:45:51;;;;;;;15.27;6.38;;;10.30;99.90;;;;;;4954870;28;20061;-87
2021/10/14 02:48:16;;;;;;;11.20;5.72;;;10.20;99.90;;;;;;4986059;28;20062;-87
2021/10/14 02:50:42;;;;;;;10.13;4.93;;;10.20;99.90;;;;;;4971109;28;20030;-87
2021/10/14 02:53:08;;;;;;;12.52;6.35;;;10.20;99.90;;;;;;4986307;28;20037;-84
2021/10/14 02:55:33;;;;;;;11.20;6.18;;;10.30;99.90;;;;;;4981983;28;20399;-84
2021/10/14 02:57:59;;;;;;;14.70;7.18;;;10.20;99.90;;;;;;4969904;28;20406;-84
2021/10/14 03:00:24;;;;;;;12.68;6.05;;;10.20;99.90;;;;;;4982864;28;20044;-84
2021/10/14 03:02:50;;;;;;;13.45;7.60;;;10.20;99.90;;;;;;4966903;28;20046;-84
2021/10/14 03:05:15;;;;;;;11.63;6.50;;;10.20;99.90;;;;;;4972153;28;20081;-84
2021/10/14 03:07:41;;;;;;;12.98;7.07;;;10.20;99.90;;;;;;4983879;28;20030;-84
2021/10/14 03:10:07;;;;;;;10.93;6.63;;;10.20;99.90;;;;;;4986321;28;20038;-85
2021/10/14 03:12:32;;;;;;;14.68;7.22;;;10.10;99.90;;;;;;4974485;28;20041;-84
2021/10/14 03:14:58;;;;;;;12.15;6.63;;;10.20;99.90;;;;;;4951463;28;20402;-84
2021/10/14 03:17:23;;;;;;;16.77;8.75;;;10.10;99.90;;;;;;4963650;28;20510;-85
2021/10/14 03:19:49;;;;;;;14.07;7.03;;;10.10;99.90;;;;;;4961735;28;20033;-84
2021/10/14 03:22:14;;;;;;;10.57;7.38;;;10.10;99.90;;;;;;4985353;28;20144;-84
2021/10/14 03:24:40;;;;;;;10.13;6.45;;;10.10;99.90;;;;;;4966880;28;20633;-84
2021/10/14 03:27:06;;;;;;;13.55;9.02;;;10.10;99.90;;;;;;4965581;28;20593;-84
2021/10/14 03:29:31;;;;;;;11.20;7.00;;;10.10;99.90;;;;;;4965409;28;20319;-84
2021/10/14 03:31:57;;;;;;;10.90;6.20;;;10.00;99.90;;;;;;4983759;28;20035;-84
2021/10/14 03:34:22;;;;;;;18.33;9.65;;;10.10;99.90;;;;;;4944424;28;20380;-84
2021/10/14 03:36:48;;;;;;;10.68;7.28;;;10.00;99.90;;;;;;4967186;28;20031;-84
2021/10/14 03:39:13;;;;;;;14.77;7.63;;;10.00;99.90;;;;;;4968940;28;20073;-84
2021/10/14 03:41:39;;;;;;;11.95;7.40;;;10.00;99.90;;;;;;4967421;28;20027;-84
2021/10/14 03:44:04;;;;;;;12.68;8.02;;;10.10;99.90;;;;;;4967392;28;20023;-84
2021/10/14 03:46:30;;;;;;;9.77;7.20;;;10.10;99.90;;;;;;4963512;28;20030;-84
2021/10/14 03:48:55;;;;;;;17.42;9.65;;;10.10;99.90;;;;;;4983990;28;20093;-84
2021/10/14 03:51:21;;;;;;;14.90;7.47;;;10.00;99.90;;;;;;4964301;28;20390;-84
2021/10/14 03:53:46;;;;;;;18.90;11.77;;;10.10;99.90;;;;;;4967782;28;20548;-84
2021/10/14 03:56:12;;;;;;;15.18;8.77;;;10.00;99.90;;;;;;4986210;28;20038;-84
2021/10/14 03:58:37;;;;;;;17.45;9.38;;;10.00;99.90;;;;;;4985337;28;20161;-84
2021/10/14 04:01:03;;;;;;;14.10;8.98;;;10.00;99.90;;;;;;4989151;28;20057;-84
2021/10/14 04:03:28;;;;;;;21.08;9.40;;;10.10;99.90;;;;;;4985441;28;20096;-84
2021/10/14 04:05:54;;;;;;;15.45;10.10;;;10.00;99.90;;;;;;4957321;28;20039;-84
2021/10/14 04:08:19;;;;;;;14.20;9.05;;;10.00;99.90;;;;;;4953675;28;20542;-84
2021/10/14 04:10:45;;;;;;;14.32;9.50;;;10.00;99.90;;;;;;4974191;28;20565;-84
2021/10/14 04:13:11;;;;;;;13.80;8.70;;;10.00;99.90;;;;;;4948916;28;20500;-84
2021/10/14 04:15:36;;;;;;;22.42;13.48;;;10.00;99.90;;;;;;4980092;28;20066;-84
2021/10/14 04:18:02;;;;;;;16.73;9.07;;;10.00;99.90;;;;;;4962047;28;20375;-84
2021/10/14 04:20:27;;;;;;;22.45;13.13;;;10.10;99.90;;;;;;4983742;28;20031;-84
2021/10/14 04:22:53;;;;;;;21.98;12.55;;;10.10;99.90;;;;;;4973220;28;20030;-84
2021/10/14 04:25:19;;;;;;;15.20;7.22;;;10.00;99.90;;;;;;4991221;28;20033;-84
2021/10/14 04:27:45;;;;;;;21.27;11.82;;;10.00;99.90;;;;;;4995565;28;20030;-84
2021/10/14 04:30:11;;;;;;;19.38;11.10;;;10.00;99.90;;;;;;5003473;28;20486;-84
2021/10/14 04:32:36;;;;;;;28.05;13.75;;;10.10;99.90;;;;;;4981369;28;20673;-84
2021/10/14 04:35:03;;;;;;;23.15;12.63;;;10.00;99.90;;;;;;5002839;28;20029;-85
2021/10/14 04:37:28;;;;;;;20.70;10.30;;;10.10;99.90;;;;;;5015532;28;20053;-84
2021/10/14 04:39:54;;;;;;;24.90;12.20;;;10.10;99.90;;;;;;4982787;28;20479;-85
2021/10/14 04:42:19;;;;;;;28.55;13.20;;;10.10;99.90;;;;;;4982564;28;20034;-86
2021/10/14 04:44:45;;;;;;;21.58;10.60;;;10.10;99.90;;;;;;5002785;28;20117;-83
2021/10/14 04:47:11;;;;;;;20.77;10.45;;;10.10;99.90;;;;;;4985413;28;20022;-83
2021/10/14 04:49:36;;;;;;;18.15;10.25;;;10.10;99.90;;;;;;4985003;28;20033;-83
2021/10/14 04:52:02;;;;;;;24.92;13.98;;;10.00;99.90;;;;;;4987784;28;20022;-84
2021/10/14 04:54:27;;;;;;;16.05;9.57;;;10.10;99.90;;;;;;4968675;28;20398;-83
2021/10/14 04:56:53;;;;;;;26.55;12.90;;;10.00;99.90;;;;;;4966532;28;20061;-82
2021/10/14 04:59:19;;;;;;;18.90;11.70;;;10.00;99.90;;;;;;4951914;28;20038;-83
2021/10/14 05:01:44;;;;;;;29.10;14.05;;;10.10;99.90;;;;;;4962254;28;20549;-83
2021/10/14 05:04:10;;;;;;;32.55;16.08;;;10.10;99.90;;;;;;4958767;28;20033;-83
2021/10/14 05:06:35;;;;;;;22.30;10.93;;;10.10;99.90;;;;;;4986563;28;20061;-83
2021/10/14 05:09:01;;;;;;;27.90;15.48;;;10.10;99.90;;;;;;4996899;28;20094;-83
2021/10/14 05:11:26;;;;;;;34.97;17.55;;;10.10;99.90;;;;;;5006857;28;20035;-83
2021/10/14 05:13:52;;;;;;;26.75;13.77;;;10.10;99.90;;;;;;4992592;28;20029;-83
2021/10/14 05:16:17;;;;;;;23.27;11.98;;;10.10;99.90;;;;;;4968307;28;20045;-83
2021/10/14 05:18:43;;;;;;;23.85;15.18;;;10.10;99.90;;;;;;4955877;28;20049;-83
2021/10/14 05:21:08;;;;;;;23.75;13.75;;;10.20;99.90;;;;;;4968023;28;20057;-83
2021/10/14 05:23:45;;;;;;;23.73;10.95;;;10.20;99.90;;;;;;4953002;28;20367;-84
2021/10/14 05:26:11;;;;;;;25.50;13.52;;;10.20;99.90;;;;;;4967552;28;20030;-84
2021/10/14 05:28:36;;;;;;;29.65;15.20;;;10.20;99.90;;;;;;4983955;28;20084;-83
2021/10/14 05:31:02;;;;;;;23.15;12.50;;;10.20;99.90;;;;;;4973308;28;20042;-83
2021/10/14 05:33:27;;;;;;;30.65;14.35;;;10.20;99.90;;;;;;4989360;28;20026;-83
2021/10/14 05:35:53;;;;;;;39.92;17.73;;;10.10;99.90;;;;;;5002464;28;20040;-84
2021/10/14 05:38:18;;;;;;;31.90;14.32;;;10.20;99.90;;;;;;4991779;28;20041;-84
2021/10/14 05:40:45;;;;;;;24.10;14.25;;;10.20;99.90;;;;;;5003506;28;20037;-83
2021/10/14 05:43:11;;;;;;;24.50;13.45;;;10.30;99.90;;;;;;4988935;28;20498;-83
2021/10/14 05:45:37;;;;;;;21.52;13.43;;;10.20;99.90;;;;;;4991293;28;20041;-83
2021/10/14 05:48:03;;;;;;;23.38;12.63;;;10.20;99.90;;;;;;5006776;28;20474;-83
2021/10/14 05:50:28;;;;;;;38.38;16.98;;;10.20;99.90;;;;;;4989515;28;20068;-83
2021/10/14 05:52:54;;;;;;;23.92;14.00;;;10.20;99.90;;;;;;4959312;28;20026;-83
2021/10/14 05:55:19;;;;;;;24.02;12.18;;;10.20;99.90;;;;;;4973854;28;20026;-83
2021/10/14 05:57:45;;;;;;;25.38;14.65;;;10.20;99.90;;;;;;5004784;28;20117;-83
2021/10/14 06:00:12;;;;;;;30.83;14.77;;;10.20;99.90;;;;;;5002313;28;20524;-83
2021/10/14 06:02:37;;;;;;;27.27;14.52;;;10.20;99.90;;;;;;4990900;28;20047;-84
2021/10/14 06:05:03;;;;;;;24.90;14.82;;;10.20;99.90;;;;;;4999708;28;20042;-83
2021/10/14 06:07:28;;;;;;;25.17;14.18;;;10.20;99.90;;;;;;5000729;28;20512;-83
2021/10/14 06:09:54;;;;;;;37.72;12.98;;;10.20;99.90;;;;;;4975383;28;20030;-83
2021/10/14 06:12:20;;;;;;;28.88;14.98;;;10.20;99.90;;;;;;4997548;28;20030;-83
2021/10/14 06:14:46;;;;;;;22.38;14.77;;;10.20;99.90;;;;;;5000286;28;20343;-83
2021/10/14 06:17:11;;;;;;;23.50;13.98;;;10.20;99.90;;;;;;5003112;28;20022;-83
2021/10/14 06:19:37;;;;;;;19.15;10.90;;;10.20;99.90;;;;;;4972175;28;20066;-83
2021/10/14 06:22:02;;;;;;;27.23;14.40;;;10.20;99.90;;;;;;4983686;28;20042;-83
2021/10/14 06:24:28;;;;;;;13.13;7.85;;;10.20;99.90;;;;;;4956703;28;20035;-83
2021/10/14 06:26:53;;;;;;;27.90;16.50;;;10.20;99.90;;;;;;4968078;28;20022;-83
2021/10/14 06:29:19;;;;;;;34.03;18.52;;;10.20;99.90;;;;;;4956627;28;20449;-83
2021/10/14 06:31:45;;;;;;;25.35;13.35;;;10.20;99.90;;;;;;4983648;28;20030;-83
2021/10/14 06:34:10;;;;;;;31.30;16.48;;;10.20;99.90;;;;;;4972220;28;20026;-83
2021/10/14 06:36:36;;;;;;;29.45;15.02;;;10.20;99.90;;;;;;4988174;28;20057;-84
2021/10/14 06:39:02;;;;;;;37.55;18.40;;;10.20;99.90;;;;;;4995959;28;20064;-83
2021/10/14 06:41:27;;;;;;;24.92;13.48;;;10.20;99.90;;;;;;5003286;28;20045;-84
2021/10/14 06:43:53;;;;;;;28.30;15.48;;;10.20;99.90;;;;;;4965095;28;20095;-84
2021/10/14 06:46:18;;;;;;;28.45;17.27;;;10.20;99.90;;;;;;5020168;28;20044;-84
2021/10/14 06:48:45;;;;;;;23.23;15.02;;;10.30;99.90;;;;;;5001575;28;20037;-85
2021/10/14 06:51:11;;;;;;;24.85;11.60;;;10.20;99.90;;;;;;4994538;28;20053;-84
2021/10/14 06:53:36;;;;;;;26.60;15.68;;;10.20;99.90;;;;;;5002336;28;20034;-84
2021/10/14 06:56:02;;;;;;;31.65;15.75;;;10.20;99.90;;;;;;4990045;28;20385;-84
2021/10/14 06:58:28;;;;;;;23.15;13.13;;;10.20;99.90;;;;;;5001549;28;20076;-84
2021/10/14 07:00:53;;;;;;;23.65;11.75;;;10.20;99.90;;;;;;4992024;28;20022;-85
2021/10/14 07:03:19;;;;;;;25.30;15.40;;;10.10;99.90;;;;;;4990234;28;20081;-84
2021/10/14 07:05:44;;;;;;;23.23;12.07;;;10.20;99.90;;;;;;5003138;28;20227;-85
2021/10/14 07:08:10;;;;;;;21.60;13.60;;;10.20;99.90;;;;;;4999520;28;20200;-85
2021/10/14 07:10:35;;;;;;;25.30;12.45;;;10.10;99.90;;;;;;4957941;28;20116;-85
2021/10/14 07:13:05;;;;;;;21.73;12.40;;;10.20;99.90;;;;;;4984247;28;20062;-85
2021/10/14 07:15:31;;;;;;;22.92;13.02;;;10.20;99.90;;;;;;4965746;28;20148;-86
2021/10/14 07:17:56;;;;;;;21.73;11.93;;;10.20;99.90;;;;;;4987011;28;20485;-86
2021/10/14 07:20:22;;;;;;;15.32;8.73;;;10.20;99.90;;;;;;4965145;28;20084;-86
2021/10/14 07:22:47;;;;;;;20.38;14.25;;;10.20;99.90;;;;;;4964757;28;20057;-86
2021/10/14 07:25:13;;;;;;;19.25;10.77;;;10.20;99.90;;;;;;4970819;28;20033;-86
2021/10/14 07:27:38;;;;;;;20.77;13.68;;;10.20;99.90;;;;;;4971371;28;20049;-86
2021/10/14 07:30:07;;;;;;;24.13;11.73;;;10.20;99.90;;;;;;4966415;28;20108;-86
2021/10/14 07:32:33;;;;;;;23.75;13.18;;;10.20;99.90;;;;;;4986092;28;20034;-85
2021/10/14 07:34:58;;;;;;;20.50;11.25;;;10.20;99.90;;;;;;4960891;28;20034;-85
2021/10/14 07:37:24;;;;;;;25.38;14.13;;;10.20;99.90;;;;;;4983534;28;20058;-86
2021/10/14 07:39:49;;;;;;;26.58;16.30;;;10.20;99.90;;;;;;4953640;28;20038;-86
2021/10/14 07:42:15;;;;;;;36.58;21.65;;;10.20;99.90;;;;;;4954560;28;20451;-86
2021/10/14 07:44:41;;;;;;;30.73;14.50;;;10.20;99.90;;;;;;4965104;28;20046;-86
2021/10/14 07:47:06;;;;;;;29.58;15.95;;;10.30;99.90;;;;;;4952250;28;20034;-86
2021/10/14 07:49:32;;;;;;;34.15;17.70;;;10.30;99.90;;;;;;4954522;28;20482;-86
2021/10/14 07:51:57;;;;;;;23.67;12.45;;;10.20;99.90;;;;;;4958459;28;20213;-86
2021/10/14 07:54:23;;;;;;;34.03;19.48;;;10.30;99.90;;;;;;4970693;28;20077;-86
2021/10/14 07:56:49;;;;;;;36.00;17.75;;;10.30;99.90;;;;;;4967930;28;21580;-86
2021/10/14 07:59:14;;;;;;;32.55;17.55;;;10.20;99.90;;;;;;4953522;28;20034;-85
2021/10/14 08:01:40;;;;;;;27.42;15.80;;;10.30;99.90;;;;;;4966818;28;20423;-86
2021/10/14 08:04:06;;;;;;;33.78;17.02;;;10.30;99.90;;;;;;4956095;28;20526;-86
2021/10/14 08:06:31;;;;;;;40.65;22.10;;;10.30;99.90;;;;;;4947641;28;20040;-87
2021/10/14 08:08:57;;;;;;;40.65;19.05;;;10.40;99.90;;;;;;4957029;28;20034;-86
2021/10/14 08:11:23;;;;;;;37.00;19.65;;;10.40;99.90;;;;;;4982670;28;20037;-86
2021/10/14 08:13:48;;;;;;;38.25;19.02;;;10.40;99.90;;;;;;4962298;28;20030;-86
2021/10/14 08:16:14;;;;;;;46.08;23.10;;;10.40;99.90;;;;;;4956365;28;20399;-86
2021/10/14 08:18:40;;;;;;;38.08;18.35;;;10.40;99.90;;;;;;4963946;28;20052;-86
2021/10/14 08:21:05;;;;;;;42.97;20.65;;;10.50;99.90;;;;;;4955708;28;20038;-86
2021/10/14 08:23:31;;;;;;;36.40;20.23;;;10.50;99.90;;;;;;4961893;28;20073;-86
2021/10/14 08:25:57;;;;;;;23.98;11.40;;;10.50;99.90;;;;;;4962389;28;20113;-86
2021/10/14 08:28:26;;;;;;;45.92;21.55;;;10.40;99.90;;;;;;4986216;28;20058;-86
2021/10/14 08:30:52;;;;;;;47.10;25.48;;;10.50;99.90;;;;;;4956403;28;20041;-86
2021/10/14 08:33:18;;;;;;;48.70;22.73;;;10.60;99.90;;;;;;5000890;28;20490;-87
2021/10/14 08:35:44;;;;;;;50.38;19.65;;;10.60;99.90;;;;;;4952810;28;20031;-87
2021/10/14 08:38:10;;;;;;;41.88;22.48;;;10.60;99.90;;;;;;4978266;28;20066;-87
2021/10/14 08:40:36;;;;;;;43.00;21.50;;;10.60;99.90;;;;;;4946858;28;20625;-87
2021/10/14 08:43:05;;;;;;;43.40;24.23;;;10.70;99.90;;;;;;4977564;28;20035;-87
2021/10/14 08:45:32;;;;;;;35.70;20.15;;;10.70;99.90;;;;;;4987448;28;20034;-87
2021/10/14 08:47:58;;;;;;;33.88;17.00;;;10.70;99.90;;;;;;4997215;28;20038;-87
2021/10/14 08:50:23;;;;;;;32.20;16.20;;;10.80;99.90;;;;;;4956695;28;20052;-87
2021/10/14 08:52:49;;;;;;;42.00;22.23;;;10.80;99.90;;;;;;4973566;28;20042;-88
2021/10/14 08:55:14;;;;;;;34.40;18.65;;;10.80;99.90;;;;;;4984755;28;20030;-88
2021/10/14 08:57:40;;;;;;;40.75;23.08;;;10.80;99.90;;;;;;4990640;28;20188;-87
2021/10/14 09:00:06;;;;;;;34.25;17.52;;;10.80;99.90;;;;;;4977364;28;20030;-87
2021/10/14 09:02:33;;;;;;;23.02;11.52;;;10.90;99.90;;;;;;5002689;28;20108;-87
2021/10/14 09:05:05;;;;;;;35.95;20.10;;;11.00;99.90;;;;;;4971081;28;20557;-87
2021/10/14 09:07:31;;;;;;;47.13;25.08;;;11.00;99.90;;;;;;4990446;28;20437;-87
2021/10/14 09:10:05;;;;;;;35.15;20.15;;;11.00;99.90;;;;;;4973091;28;20034;-87
2021/10/14 09:12:35;;;;;;;36.70;20.75;;;11.10;99.90;;;;;;4995772;28;20034;-87
2021/10/14 09:15:07;;;;;;;48.97;23.90;;;11.10;99.90;;;;;;5007272;28;20030;-87
2021/10/14 09:17:38;;;;;;;45.55;21.77;;;11.20;99.90;;;;;;5021451;28;20076;-87
2021/10/14 09:20:23;;;;;;;48.75;25.48;;;11.20;99.90;;;;;;5019812;28;20049;-87
2021/10/14 09:22:55;;;;;;;36.60;19.63;;;11.20;99.90;;;;;;4984175;28;20026;-87
2021/10/14 09:25:50;;;;;;;37.22;19.40;;;11.20;99.90;;;;;;4989336;28;20042;-87
2021/10/14 09:28:22;;;;;;;41.58;22.80;;;11.30;99.90;;;;;;4992441;28;20030;-87
2021/10/14 09:30:53;;;;;;;39.03;20.73;;;11.30;99.90;;;;;;5006562;28;20415;-87
2021/10/14 09:33:41;;;;;;;35.58;18.33;;;11.30;99.90;;;;;;5023687;28;20251;-87
2021/10/14 09:36:13;;;;;;;40.75;21.25;;;11.40;99.90;;;;;;5008380;28;20133;-87
2021/10/14 09:38:39;;;;;;;33.75;17.38;;;11.40;99.90;;;;;;5010391;28;20038;-87
2021/10/14 09:41:07;;;;;;;40.40;23.15;;;11.40;99.90;;;;;;4971780;28;20516;-88
2021/10/14 09:43:35;;;;;;;37.30;21.45;;;11.40;99.90;;;;;;4955452;28;20035;-86
2021/10/14 09:46:43;;;;;;;40.05;20.38;;;11.50;99.90;;;;;;4964643;28;20049;-86
2021/10/14 09:49:19;;;;;;;40.92;19.27;;;11.50;99.90;;;;;;4993285;28;20116;-87
2021/10/14 09:51:53;;;;;;;43.28;23.65;;;11.50;99.90;;;;;;4977178;28;20033;-87
2021/10/14 09:54:19;;;;;;;43.97;22.33;;;11.60;99.90;;;;;;4975745;28;20052;-87
2021/10/14 09:56:57;;;;;;;45.92;20.80;;;11.60;99.90;;;;;;4984477;28;21152;-87
2021/10/14 09:59:23;;;;;;;43.65;19.90;;;11.50;99.90;;;;;;4993598;28;20041;-87
2021/10/14 10:01:50;;;;;;;40.20;20.73;;;11.50;99.90;;;;;;4991572;28;20117;-87
2021/10/14 10:04:16;;;;;;;34.33;16.35;;;11.60;99.90;;;;;;5005890;28;20320;-87
2021/10/14 10:06:41;;;;;;;20.98;10.30;;;11.60;99.90;;;;;;4998024;28;20052;-87
2021/10/14 10:09:15;;;;;;;32.35;14.77;;;11.70;99.90;;;;;;4986818;28;20038;-86
2021/10/14 10:11:46;;;;;;;44.20;21.48;;;11.80;99.90;;;;;;4950293;28;20173;-87
2021/10/14 10:14:11;;;;;;;42.10;20.08;;;11.70;99.90;;;;;;4978184;28;20501;-87
2021/10/14 10:16:37;;;;;;;46.00;22.48;;;11.80;99.90;;;;;;4964777;28;20031;-87
2021/10/14 10:19:06;;;;;;;31.30;15.25;;;11.90;99.90;;;;;;4971310;28;20038;-87
2021/10/14 10:21:31;;;;;;;22.88;11.80;;;11.80;99.90;;;;;;4994822;28;20044;-87
2021/10/14 10:24:03;;;;;;;39.67;18.77;;;11.90;99.90;;;;;;5021329;28;20034;-86
2021/10/14 10:26:35;;;;;;;40.83;21.48;;;11.90;99.90;;;;;;4999793;28;20084;-87
2021/10/14 10:29:13;;;;;;;28.27;15.23;;;12.00;99.90;;;;;;5016253;28;20036;-87
2021/10/14 10:31:55;;;;;;;34.35;18.42;;;12.00;99.90;;;;;;5000775;28;20365;-87
2021/10/14 10:34:44;;;;;;;38.15;18.83;;;12.00;99.90;;;;;;4993282;28;20494;-87
2021/10/14 10:37:16;;;;;;;36.42;17.05;;;12.00;99.90;;;;;;5013893;28;20037;-87
2021/10/14 10:39:54;;;;;;;42.75;22.98;;;12.00;99.90;;;;;;5005265;28;20030;-87
2021/10/14 10:42:53;;;;;;;41.25;22.42;;;12.00;99.90;;;;;;5004794;28;20026;-87
2021/10/14 10:45:49;;;;;;;44.88;23.40;;;12.10;99.90;;;;;;4992102;28;20409;-87
2021/10/14 10:48:15;;;;;;;35.43;19.57;;;12.20;99.90;;;;;;4985182;28;20038;-87
2021/10/14 10:50:40;;;;;;;38.58;20.08;;;12.20;99.90;;;;;;4974802;28;20058;-86
2021/10/14 10:53:48;;;;;;;36.33;19.98;;;12.30;99.90;;;;;;5012458;28;20038;-86
2021/10/14 10:56:34;;;;;;;25.25;12.35;;;12.30;99.90;;;;;;4929309;29;20028;-87
2021/10/14 10:58:59;;;;;;;38.90;22.07;;;12.40;99.90;;;;;;4960160;28;20037;-87
2021/10/14 11:01:25;;;;;;;32.67;15.55;;;12.30;99.90;;;;;;4988633;28;20277;-87
2021/10/14 11:04:01;;;;;;;33.08;19.60;;;12.30;99.90;;;;;;4953703;28;20491;-87
2021/10/14 11:06:29;;;;;;;32.05;18.50;;;12.40;99.90;;;;;;4969482;28;20031;-87
2021/10/14 11:09:05;;;;;;;30.83;15.82;;;12.50;99.90;;;;;;4955339;28;20109;-87
2021/10/14 11:11:34;;;;;;;28.67;15.98;;;12.50;99.90;;;;;;4994419;28;20034;-87
2021/10/14 11:14:00;;;;;;;27.88;16.17;;;12.50;99.90;;;;;;4967188;28;20034;-87
2021/10/14 11:16:27;;;;;;;22.45;11.80;;;12.60;99.90;;;;;;4964840;28;20038;-87
2021/10/14 11:18:53;;;;;;;34.28;19.88;;;12.60;99.90;;;;;;4955038;28;20053;-87
2021/10/14 11:21:20;;;;;;;28.08;15.63;;;12.60;99.90;;;;;;4954724;28;20023;-87
2021/10/14 11:23:50;;;;;;;36.45;19.05;;;12.70;99.90;;;;;;4966759;28;20057;-87
2021/10/14 11:26:21;;;;;;;30.85;15.98;;;12.80;99.90;;;;;;4954743;28;20038;-87
2021/10/14 11:28:57;;;;;;;30.02;16.48;;;12.90;99.90;;;;;;4986232;28;20053;-88
2021/10/14 11:31:28;;;;;;;27.80;15.75;;;12.80;99.90;;;;;;4970168;28;20514;-87
2021/10/14 11:33:54;;;;;;;27.38;15.63;;;12.80;99.90;;;;;;4986446;28;20030;-87
2021/10/14 11:36:23;;;;;;;25.98;15.20;;;12.80;99.90;;;;;;4970275;28;20057;-87
2021/10/14 11:38:56;;;;;;;31.13;14.98;;;13.00;99.90;;;;;;4962972;28;20053;-87
2021/10/14 11:41:22;;;;;;;26.50;15.20;;;13.00;99.90;;;;;;4954142;28;20076;-87
2021/10/14 11:43:53;;;;;;;21.17;9.85;;;12.90;99.90;;;;;;4953708;28;20030;-88
2021/10/14 11:46:27;;;;;;;15.60;8.15;;;13.10;99.90;;;;;;4962338;28;20057;-87
2021/10/14 11:48:57;;;;;;;26.77;15.25;;;13.00;99.90;;;;;;4988748;28;20035;-87
2021/10/14 11:51:23;;;;;;;27.40;15.60;;;12.90;99.90;;;;;;4943678;28;20117;-87
2021/10/14 11:54:17;;;;;;;26.40;14.65;;;13.00;99.90;;;;;;4971651;28;20122;-87
2021/10/14 11:56:53;;;;;;;26.13;12.98;;;13.00;99.90;;;;;;4972409;28;20516;-87
2021/10/14 11:59:21;;;;;;;22.05;13.20;;;13.30;99.90;;;;;;4947946;28;20331;-88
2021/10/14 12:01:56;;;;;;;23.25;13.52;;;13.50;99.90;;;;;;4957374;28;20382;-87
2021/10/14 12:04:25;;;;;;;17.23;9.38;;;13.70;99.90;;;;;;4977401;28;20276;-88
2021/10/14 12:06:51;;;;;;;19.70;9.50;;;13.70;99.90;;;;;;4966396;28;20392;-89
2021/10/14 12:09:19;;;;;;;22.98;11.90;;;14.00;99.90;;;;;;4953639;28;20133;-88
2021/10/14 12:11:44;;;;;;;21.70;12.05;;;13.90;99.90;;;;;;4987558;28;20054;-88
2021/10/14 12:14:10;;;;;;;18.35;8.23;;;14.00;99.90;;;;;;4983316;28;20049;-88
2021/10/14 12:16:36;;;;;;;21.33;8.35;;;14.10;99.90;;;;;;4969597;28;20556;-88
2021/10/14 12:19:15;;;;;;;21.75;13.82;;;14.10;99.90;;;;;;4981134;28;20103;-88
2021/10/14 12:21:42;;;;;;;19.35;10.68;;;14.00;99.90;;;;;;4980989;28;20042;-85
2021/10/14 12:24:18;;;;;;;14.52;7.93;;;14.00;99.90;;;;;;4986366;28;20118;-88
2021/10/14 12:26:44;;;;;;;14.20;8.77;;;14.30;99.90;;;;;;4972115;28;20037;-88
2021/10/14 12:29:26;;;;;;;17.10;10.10;;;14.40;99.90;;;;;;5002082;28;20121;-87
2021/10/14 12:32:14;;;;;;;21.00;12.98;;;14.10;99.90;;;;;;4981159;28;20031;-85
2021/10/14 12:34:58;;;;;;;20.92;10.98;;;14.30;99.90;;;;;;4969572;28;20030;-88